createdAt,value
2019-06-26T00:00:27.596Z,11.73
2019-06-26T00:02:56.888Z,11.50
2019-06-26T00:05:27.634Z,11.40
2019-06-26T00:07:56.713Z,10.70
2019-06-26T00:10:25.912Z,11.03
2019-06-26T00:12:55.153Z,12.17
2019-06-26T00:15:24.364Z,11.80
2019-06-26T00:17:53.847Z,11.33
2019-06-26T00:20:23.038Z,10.70
2019-06-26T00:22:52.315Z,11.07
2019-06-26T00:25:21.441Z,11.37
2019-06-26T00:27:50.587Z,11.03
2019-06-26T00:30:19.910Z,11.23
2019-06-26T00:32:49.003Z,11.47
2019-06-26T00:35:18.309Z,11.30
2019-06-26T00:37:47.608Z,10.97
2019-06-26T00:40:17.146Z,10.73
2019-06-26T00:42:46.280Z,11.53
2019-06-26T00:45:15.548Z,11.40
2019-06-26T00:47:45.015Z,11.17
2019-06-26T00:50:15.485Z,12.23
2019-06-26T00:52:44.638Z,10.10
2019-06-26T00:55:13.804Z,10.40
2019-06-26T00:57:42.934Z,10.00
2019-06-26T01:00:13.129Z,10.33
2019-06-26T01:02:42.353Z,11.20
2019-06-26T01:05:12.861Z,10.80
2019-06-26T01:07:42.153Z,12.17
2019-06-26T01:10:12.980Z,10.07
2019-06-26T01:12:42.140Z,10.10
2019-06-26T01:15:12.023Z,10.80
2019-06-26T01:17:41.436Z,10.17
2019-06-26T01:20:10.785Z,9.63
2019-06-26T01:22:40.035Z,10.57
2019-06-26T01:25:09.541Z,10.57
2019-06-26T01:27:38.842Z,10.13
2019-06-26T01:30:09.287Z,10.40
2019-06-26T01:32:38.780Z,11.47
2019-06-26T01:35:08.726Z,10.73
2019-06-26T01:37:37.920Z,10.57
2019-06-26T01:40:08.001Z,11.00
2019-06-26T01:42:37.322Z,11.67
2019-06-26T01:45:08.866Z,11.17
2019-06-26T01:47:38.178Z,10.70
2019-06-26T01:50:08.025Z,10.70
2019-06-26T01:52:37.381Z,11.03
2019-06-26T01:55:08.047Z,10.53
2019-06-26T01:57:37.110Z,10.67
2019-06-26T02:00:13.440Z,11.47
2019-06-26T02:02:42.670Z,11.63
2019-06-26T02:05:12.084Z,12.17
2019-06-26T02:07:41.109Z,10.50
2019-06-26T02:10:11.084Z,11.33
2019-06-26T02:12:40.154Z,11.07
2019-06-26T02:15:09.533Z,9.80
2019-06-26T02:17:38.578Z,10.53
2019-06-26T02:20:08.634Z,10.63
2019-06-26T02:22:37.801Z,10.97
2019-06-26T02:25:07.552Z,10.70
2019-06-26T02:27:37.017Z,11.43
2019-06-26T02:30:09.145Z,9.73
2019-06-26T02:32:38.604Z,10.23
2019-06-26T02:35:38.704Z,11.63
2019-06-26T02:38:08.399Z,9.97
2019-06-26T02:40:38.257Z,11.20
2019-06-26T02:43:08.164Z,12.93
2019-06-26T02:45:38.180Z,11.20
2019-06-26T02:48:08.172Z,12.60
2019-06-26T02:50:37.667Z,11.63
2019-06-26T02:53:25.095Z,12.93
2019-06-26T02:55:52.581Z,12.63
2019-06-26T02:58:21.766Z,13.00
2019-06-26T03:00:50.854Z,13.63
2019-06-26T03:03:21.271Z,12.90
2019-06-26T03:05:51.453Z,12.70
2019-06-26T03:08:20.826Z,11.37
2019-06-26T03:10:50.713Z,12.90
2019-06-26T03:13:21.350Z,12.13
2019-06-26T03:15:52.234Z,12.40
2019-06-26T03:18:23.606Z,14.73
2019-06-26T03:20:58.286Z,12.53
2019-06-26T03:23:27.787Z,11.67
2019-06-26T03:25:57.747Z,12.20
2019-06-26T03:28:27.868Z,11.47
2019-06-26T03:30:58.130Z,12.23
2019-06-26T03:33:27.816Z,10.53
2019-06-26T03:35:57.592Z,11.10
2019-06-26T03:38:27.080Z,10.40
2019-06-26T03:40:57.031Z,12.77
2019-06-26T03:43:27.497Z,11.30
2019-06-26T03:45:57.019Z,10.50
2019-06-26T03:48:27.271Z,12.07
2019-06-26T03:50:57.391Z,11.17
2019-06-26T03:53:26.791Z,11.27
2019-06-26T03:55:59.630Z,12.73
2019-06-26T03:58:29.507Z,11.57
2019-06-26T04:01:11.231Z,11.73
2019-06-26T04:03:40.812Z,12.77
2019-06-26T04:06:12.898Z,14.27
2019-06-26T04:08:43.333Z,12.40
2019-06-26T04:11:13.344Z,13.57
2019-06-26T04:13:43.027Z,14.47
2019-06-26T04:16:19.402Z,13.47
2019-06-26T04:18:50.010Z,12.90
2019-06-26T04:21:20.173Z,14.60
2019-06-26T04:23:57.251Z,13.57
2019-06-26T04:26:31.895Z,12.47
2019-06-26T04:29:05.875Z,12.87
2019-06-26T04:31:40.757Z,12.87
2019-06-26T04:34:12.993Z,13.10
2019-06-26T04:36:47.966Z,14.07
2019-06-26T04:39:18.381Z,13.67
2019-06-26T04:41:54.399Z,13.90
2019-06-26T04:44:30.870Z,13.27
2019-06-26T04:47:01.316Z,13.07
2019-06-26T04:49:37.125Z,13.63
2019-06-26T04:52:07.521Z,13.63
2019-06-26T04:54:37.316Z,13.80
2019-06-26T04:57:06.978Z,14.03
2019-06-26T04:59:37.088Z,13.63
2019-06-26T05:02:08.370Z,12.93
2019-06-26T05:04:38.730Z,14.20
2019-06-26T05:07:08.673Z,13.00
2019-06-26T05:09:38.604Z,14.07
2019-06-26T05:12:08.202Z,13.83
2019-06-26T05:14:38.798Z,14.60
2019-06-26T05:17:16.476Z,13.30
2019-06-26T05:19:47.623Z,14.63
2019-06-26T05:22:18.241Z,14.57
2019-06-26T05:24:51.150Z,13.50
2019-06-26T05:27:20.747Z,14.43
2019-06-26T05:29:54.426Z,15.07
2019-06-26T05:32:23.869Z,14.30
2019-06-26T05:34:53.420Z,14.47
2019-06-26T05:37:22.903Z,14.10
2019-06-26T05:40:15.454Z,14.57
2019-06-26T05:42:44.971Z,14.87
2019-06-26T05:45:15.328Z,14.17
2019-06-26T05:50:51.316Z,15.40
2019-06-26T05:53:27.504Z,14.20
2019-06-26T05:55:56.853Z,14.60
2019-06-26T05:58:26.121Z,14.40
2019-06-26T06:01:03.628Z,14.47
2019-06-26T06:06:41.738Z,15.53
2019-06-26T06:09:15.538Z,15.00
2019-06-26T06:11:46.562Z,14.87
2019-06-26T06:14:16.065Z,14.43
2019-06-26T06:16:56.039Z,12.68
2019-06-26T06:19:37.548Z,13.88
2019-06-26T06:22:09.206Z,13.10
2019-06-26T06:24:43.908Z,13.38
2019-06-26T06:27:18.425Z,12.37
2019-06-26T06:29:51.090Z,13.03
2019-06-26T06:35:13.381Z,13.53
2019-06-26T06:37:43.301Z,12.68
2019-06-26T06:40:19.363Z,12.80
2019-06-26T06:42:49.280Z,13.40
2019-06-26T06:45:27.077Z,13.05
2019-06-26T06:47:57.103Z,12.70
2019-06-26T06:50:47.752Z,14.35
2019-06-26T06:53:19.143Z,13.40
2019-06-26T06:55:48.263Z,12.90
2019-06-26T06:58:24.264Z,12.55
2019-06-26T07:00:56.631Z,12.28
2019-06-26T07:03:33.998Z,12.93
2019-06-26T07:06:04.320Z,13.00
2019-06-26T07:08:34.363Z,12.58
2019-06-26T07:11:11.390Z,12.50
2019-06-26T07:13:42.424Z,13.20
2019-06-26T07:16:34.427Z,12.20
2019-06-26T07:19:05.397Z,13.53
2019-06-26T07:21:41.891Z,13.38
2019-06-26T07:24:12.386Z,12.30
2019-06-26T07:26:52.588Z,12.70
2019-06-26T07:32:30.464Z,12.28
2019-06-26T07:35:22.675Z,14.10
2019-06-26T07:38:00.935Z,13.78
2019-06-26T07:40:33.242Z,13.18
2019-06-26T07:43:04.665Z,12.53
2019-06-26T07:45:41.680Z,13.13
2019-06-26T07:48:14.443Z,13.18
2019-06-26T07:53:46.850Z,12.30
2019-06-26T07:59:13.302Z,13.03
2019-06-26T08:02:08.468Z,13.98
2019-06-26T08:04:42.533Z,15.40
2019-06-26T08:07:21.107Z,13.53
2019-06-26T08:09:56.625Z,13.18
2019-06-26T08:12:45.432Z,13.43
2019-06-26T08:15:28.353Z,13.18
2019-06-26T08:18:07.710Z,12.43
2019-06-26T08:20:51.907Z,13.60
2019-06-26T08:23:21.120Z,16.70
2019-06-26T08:25:54.922Z,13.58
2019-06-26T08:28:32.484Z,13.28
2019-06-26T08:31:05.068Z,12.82
2019-06-26T08:33:45.286Z,13.55
2019-06-26T08:36:17.491Z,13.30
2019-06-26T08:38:55.284Z,12.28
2019-06-26T08:41:26.044Z,13.08
2019-06-26T08:43:58.028Z,15.78
2019-06-26T08:46:34.803Z,12.80
2019-06-26T08:49:04.266Z,13.98
2019-06-26T08:52:15.146Z,11.95
2019-06-26T08:54:57.743Z,11.95
2019-06-26T08:57:34.186Z,12.37
2019-06-26T09:00:05.784Z,12.30
2019-06-26T09:02:56.361Z,12.98
2019-06-26T09:05:26.186Z,12.55
2019-06-26T09:08:15.620Z,13.03
2019-06-26T09:10:51.226Z,13.32
2019-06-26T09:13:29.304Z,13.35
2019-06-26T09:16:02.019Z,12.58
2019-06-26T09:18:35.934Z,12.58
2019-06-26T09:21:16.791Z,11.85
2019-06-26T09:23:48.892Z,11.90
2019-06-26T09:26:25.349Z,11.55
2019-06-26T09:29:01.049Z,12.20
2019-06-26T09:31:56.914Z,12.13
2019-06-26T09:34:26.331Z,12.43
2019-06-26T09:37:02.653Z,11.60
2019-06-26T09:39:31.697Z,12.73
2019-06-26T09:42:01.371Z,12.55
2019-06-26T09:44:42.103Z,12.98
2019-06-26T09:47:23.288Z,12.47
2019-06-26T09:50:01.026Z,12.45
2019-06-26T09:52:50.799Z,13.10
2019-06-26T09:55:39.563Z,17.52
2019-06-26T09:58:12.997Z,12.10
2019-06-26T10:00:50.324Z,11.90
2019-06-26T10:03:21.104Z,12.53
2019-06-26T10:05:53.259Z,13.18
2019-06-26T10:08:30.308Z,12.65
2019-06-26T10:11:07.408Z,13.35
2019-06-26T10:13:39.884Z,14.28
2019-06-26T10:16:10.321Z,13.65
2019-06-26T10:18:49.575Z,12.35
2019-06-26T10:24:13.461Z,13.38
2019-06-26T10:26:47.213Z,13.65
2019-06-26T10:29:17.139Z,13.13
2019-06-26T10:31:56.214Z,12.68
2019-06-26T10:34:27.212Z,12.80
2019-06-26T10:37:04.086Z,13.62
2019-06-26T10:39:33.798Z,13.83
2019-06-26T10:42:04.735Z,13.60
2019-06-26T10:44:43.217Z,14.10
2019-06-26T10:53:14.596Z,14.23
2019-06-26T10:55:51.656Z,13.25
2019-06-26T10:58:23.221Z,13.38
2019-06-26T11:00:54.219Z,12.82
2019-06-26T11:03:33.048Z,16.35
2019-06-26T11:06:29.705Z,18.50
2019-06-26T11:09:07.744Z,15.28
2019-06-26T11:11:39.958Z,12.95
2019-06-26T11:14:17.638Z,13.60
2019-06-26T11:16:47.096Z,13.50
2019-06-26T11:19:17.480Z,13.00
2019-06-26T11:21:54.172Z,12.88
2019-06-26T11:30:11.460Z,14.15
2019-06-26T11:32:48.499Z,13.55
2019-06-26T11:35:19.612Z,14.13
2019-06-26T11:37:49.494Z,14.18
2019-06-26T11:40:26.669Z,14.28
2019-06-26T11:42:56.926Z,13.15
2019-06-26T11:45:34.642Z,13.93
2019-06-26T11:48:04.024Z,14.43
2019-06-26T11:50:34.383Z,13.80
2019-06-26T11:53:12.148Z,14.55
2019-06-26T11:55:57.818Z,13.48
2019-06-26T11:58:35.769Z,14.45
2019-06-26T12:01:06.023Z,13.20
2019-06-26T12:06:19.165Z,14.40
2019-06-26T12:08:48.533Z,14.68
2019-06-26T12:11:17.512Z,13.55
2019-06-26T12:13:49.250Z,15.90
2019-06-26T12:16:18.508Z,14.73
2019-06-26T12:18:47.441Z,14.63
2019-06-26T12:21:16.888Z,14.95
2019-06-26T12:23:46.114Z,14.50
2019-06-26T12:26:15.084Z,14.98
2019-06-26T12:28:44.178Z,15.08
2019-06-26T12:31:13.181Z,13.75
2019-06-26T12:33:42.176Z,13.65
2019-06-26T12:36:11.552Z,13.30
2019-06-26T12:38:40.620Z,13.58
2019-06-26T12:41:09.753Z,13.62
2019-06-26T12:43:39.046Z,14.43
2019-06-26T12:46:08.056Z,15.08
2019-06-26T12:48:37.043Z,13.05
2019-06-26T12:51:06.092Z,13.05
2019-06-26T12:53:35.404Z,14.80
2019-06-26T12:56:04.698Z,14.50
2019-06-26T12:58:33.641Z,14.07
2019-06-26T13:01:02.893Z,14.28
2019-06-26T13:03:31.836Z,14.47
2019-06-26T13:06:00.838Z,15.23
2019-06-26T13:08:29.776Z,15.03
2019-06-26T13:10:58.735Z,14.35
2019-06-26T13:13:27.722Z,14.33
2019-06-26T13:15:57.022Z,13.18
2019-06-26T13:18:26.184Z,13.85
2019-06-26T13:20:55.238Z,13.40
2019-06-26T13:23:24.289Z,13.25
2019-06-26T13:25:53.341Z,12.20
2019-06-26T13:28:22.272Z,11.28
2019-06-26T13:30:53.362Z,12.40
2019-06-26T13:33:22.101Z,11.80
2019-06-26T13:35:51.027Z,11.73
2019-06-26T13:38:20.178Z,13.10
2019-06-26T13:40:49.172Z,14.60
2019-06-26T13:43:18.288Z,13.18
2019-06-26T13:45:47.799Z,13.05
2019-06-26T13:48:17.268Z,12.73
2019-06-26T13:50:46.375Z,13.68
2019-06-26T13:53:15.434Z,13.70
2019-06-26T13:55:44.419Z,12.28
2019-06-26T13:58:13.393Z,12.20
2019-06-26T14:00:42.552Z,13.10
2019-06-26T14:03:11.566Z,12.05
2019-06-26T14:05:40.568Z,12.80
2019-06-26T14:08:09.536Z,12.35
2019-06-26T14:10:38.748Z,13.78
2019-06-26T14:13:09.184Z,13.15
2019-06-26T14:15:38.181Z,14.15
2019-06-26T14:18:07.222Z,12.80
2019-06-26T14:20:36.526Z,11.95
2019-06-26T14:23:05.485Z,11.40
2019-06-26T14:25:34.550Z,12.93
2019-06-26T14:28:03.538Z,14.43
2019-06-26T14:30:32.502Z,12.63
2019-06-26T14:33:05.844Z,13.08
2019-06-26T14:35:35.028Z,13.40
2019-06-26T14:38:03.970Z,11.78
2019-06-26T14:40:33.048Z,12.95
2019-06-26T14:43:02.009Z,12.33
2019-06-26T14:45:31.389Z,12.47
2019-06-26T14:48:00.373Z,12.15
2019-06-26T14:50:29.354Z,11.28
2019-06-26T14:52:58.452Z,12.15
2019-06-26T14:55:27.513Z,12.03
2019-06-26T14:57:56.610Z,13.10
2019-06-26T15:00:26.161Z,12.95
2019-06-26T15:02:55.088Z,11.22
2019-06-26T15:05:24.072Z,10.82
2019-06-26T15:07:53.394Z,12.20
2019-06-26T15:10:22.581Z,12.18
2019-06-26T15:12:51.634Z,11.00
2019-06-26T15:15:21.072Z,10.95
2019-06-26T15:17:50.181Z,10.95
2019-06-26T15:20:19.745Z,11.18
2019-06-26T15:22:48.769Z,10.85
2019-06-26T15:25:18.097Z,10.15
2019-06-26T15:27:47.080Z,10.40
2019-06-26T15:30:16.728Z,11.00
2019-06-26T15:32:45.701Z,10.15
2019-06-26T15:35:15.540Z,10.13
2019-06-26T15:37:44.924Z,10.32
2019-06-26T15:40:17.134Z,9.63
2019-06-26T15:42:48.884Z,9.85
2019-06-26T15:45:19.761Z,11.55
2019-06-26T15:47:47.557Z,10.78
2019-06-26T15:50:16.654Z,10.10
2019-06-26T15:52:45.959Z,9.95
2019-06-26T15:55:15.563Z,10.20
2019-06-26T15:57:44.623Z,10.05
2019-06-26T16:00:14.560Z,9.73
2019-06-26T16:02:43.619Z,10.55
2019-06-26T16:05:12.892Z,10.80
2019-06-26T16:07:41.974Z,10.43
2019-06-26T16:10:11.107Z,10.63
2019-06-26T16:12:40.152Z,12.25
2019-06-26T16:15:10.561Z,11.15
2019-06-26T16:17:53.190Z,12.90
2019-06-26T16:20:22.224Z,11.93
2019-06-26T16:22:51.229Z,11.10
2019-06-26T16:25:20.308Z,11.22
2019-06-26T16:28:04.268Z,11.95
2019-06-26T16:30:20.770Z,11.38
2019-06-26T16:32:49.938Z,11.50
2019-06-26T16:35:19.093Z,10.80
2019-06-26T16:37:48.034Z,9.80
2019-06-26T16:40:17.182Z,9.83
2019-06-26T16:42:46.250Z,11.10
2019-06-26T16:45:16.685Z,9.95
2019-06-26T16:47:45.769Z,10.40
2019-06-26T16:50:15.433Z,10.03
2019-06-26T16:52:49.187Z,11.30
2019-06-26T16:55:15.531Z,9.90
2019-06-26T16:57:44.705Z,9.58
2019-06-26T17:00:14.145Z,9.10
2019-06-26T17:02:43.370Z,9.03
2019-06-26T17:05:13.500Z,9.03
2019-06-26T17:07:42.630Z,9.40
2019-06-26T17:10:13.403Z,9.30
2019-06-26T17:12:42.621Z,9.45
2019-06-26T17:15:12.242Z,8.88
2019-06-26T17:17:43.025Z,9.15
2019-06-26T17:20:12.548Z,9.88
2019-06-26T17:22:41.665Z,8.85
2019-06-26T17:25:10.965Z,8.30
2019-06-26T17:27:40.263Z,8.65
2019-06-26T17:30:10.487Z,8.63
2019-06-26T17:32:39.425Z,9.35
2019-06-26T17:35:08.552Z,8.43
2019-06-26T17:37:37.795Z,8.90
2019-06-26T17:40:07.924Z,8.33
2019-06-26T17:42:36.911Z,8.40
2019-06-26T17:45:09.927Z,8.45
2019-06-26T17:47:38.900Z,7.85
2019-06-26T17:50:08.571Z,9.55
2019-06-26T17:52:39.917Z,8.10
2019-06-26T17:55:08.757Z,7.92
2019-06-26T17:57:37.757Z,7.12
2019-06-26T18:00:11.730Z,7.83
2019-06-26T18:02:40.781Z,8.33
2019-06-26T18:05:10.532Z,7.80
2019-06-26T18:07:39.535Z,8.38
2019-06-26T18:10:09.166Z,7.67
2019-06-26T18:12:38.154Z,7.90
2019-06-26T18:15:08.068Z,7.30
2019-06-26T18:17:37.113Z,7.45
2019-06-26T18:20:07.562Z,7.25
2019-06-26T18:22:36.926Z,8.43
2019-06-26T18:25:07.773Z,7.40
2019-06-26T18:27:36.705Z,6.47
2019-06-26T18:30:10.366Z,6.90
2019-06-26T18:32:39.647Z,7.08
2019-06-26T18:35:08.675Z,6.80
2019-06-26T18:37:37.672Z,8.50
2019-06-26T18:40:08.251Z,7.45
2019-06-26T18:42:37.699Z,8.23
2019-06-26T18:45:07.762Z,7.87
2019-06-26T18:47:36.729Z,8.08
2019-06-26T18:50:08.432Z,7.78
2019-06-26T18:52:37.807Z,7.78
2019-06-26T18:55:07.797Z,7.65
2019-06-26T18:57:36.760Z,8.43
2019-06-26T19:00:10.341Z,7.15
2019-06-26T19:02:39.523Z,7.75
2019-06-26T19:05:09.167Z,7.85
2019-06-26T19:07:38.242Z,8.30
2019-06-26T19:10:08.898Z,7.40
2019-06-26T19:12:37.857Z,8.08
2019-06-26T19:15:08.280Z,8.35
2019-06-26T19:17:37.424Z,8.70
2019-06-26T19:20:08.457Z,8.25
2019-06-26T19:22:37.786Z,8.25
2019-06-26T19:25:10.077Z,8.55
2019-06-26T19:27:39.403Z,8.23
2019-06-26T19:30:10.230Z,9.18
2019-06-26T19:32:41.505Z,8.05
2019-06-26T19:35:19.799Z,8.48
2019-06-26T19:37:44.282Z,7.95
2019-06-26T19:40:13.865Z,8.78
2019-06-26T19:42:42.821Z,8.83
2019-06-26T19:45:12.763Z,8.75
2019-06-26T19:47:42.034Z,8.20
2019-06-26T19:50:11.782Z,8.68
2019-06-26T19:52:40.878Z,7.95
2019-06-26T19:55:10.295Z,8.33
2019-06-26T19:57:40.098Z,9.00
2019-06-26T20:00:11.100Z,7.37
2019-06-26T20:02:40.336Z,7.75
2019-06-26T20:05:10.486Z,7.30
2019-06-26T20:07:39.888Z,8.75
2019-06-26T20:10:11.238Z,7.83
2019-06-26T20:12:40.337Z,7.97
2019-06-26T20:15:10.014Z,7.90
2019-06-26T20:17:39.073Z,7.60
2019-06-26T20:20:09.765Z,6.72
2019-06-26T20:22:38.802Z,7.20
2019-06-26T20:25:09.216Z,7.63
2019-06-26T20:27:38.214Z,7.15
2019-06-26T20:30:09.716Z,6.80
2019-06-26T20:32:39.149Z,6.53
2019-06-26T20:35:08.331Z,7.55
2019-06-26T20:37:37.406Z,6.53
2019-06-26T20:40:07.995Z,6.00
2019-06-26T20:42:37.048Z,6.70
2019-06-26T20:45:07.898Z,6.40
2019-06-26T20:47:36.989Z,8.33
2019-06-26T20:50:09.689Z,6.83
2019-06-26T20:52:38.841Z,6.57
2019-06-26T20:55:08.607Z,6.83
2019-06-26T20:57:37.769Z,6.27
2019-06-26T21:00:08.680Z,8.50
2019-06-26T21:02:37.927Z,6.47
2019-06-26T21:05:07.824Z,5.67
2019-06-26T21:07:36.818Z,8.30
2019-06-26T21:10:06.656Z,7.20
2019-06-26T21:12:35.744Z,6.60
2019-06-26T21:15:08.962Z,7.30
2019-06-26T21:17:38.036Z,7.47
2019-06-26T21:20:08.180Z,5.47
2019-06-26T21:22:37.121Z,7.23
2019-06-26T21:25:17.710Z,5.67
2019-06-26T21:27:38.481Z,9.50
2019-06-26T21:30:08.019Z,7.53
2019-06-26T21:32:37.149Z,8.53
2019-06-26T21:35:07.007Z,5.60
2019-06-26T21:37:36.379Z,7.63
2019-06-26T21:40:05.959Z,6.13
2019-06-26T21:42:35.088Z,6.47
2019-06-26T21:45:05.122Z,6.07
2019-06-26T21:47:34.307Z,9.57
2019-06-26T21:50:03.608Z,5.60
2019-06-26T21:52:33.269Z,7.73
2019-06-26T21:55:02.414Z,6.17
2019-06-26T21:57:31.510Z,6.50
2019-06-26T22:00:00.649Z,6.47
2019-06-26T22:02:30.397Z,6.53
2019-06-26T22:05:00.430Z,8.53
2019-06-26T22:07:30.683Z,6.90
2019-06-26T22:10:00.442Z,6.30
2019-06-26T22:12:29.884Z,5.77
2019-06-26T22:14:59.586Z,6.60
2019-06-26T22:17:29.406Z,6.60
2019-06-26T22:19:58.843Z,7.50
2019-06-26T22:22:28.527Z,5.83
2019-06-26T22:24:58.127Z,7.27
2019-06-26T22:27:28.149Z,7.03
2019-06-26T22:29:57.745Z,7.70
2019-06-26T22:32:27.491Z,8.07
2019-06-26T22:34:57.452Z,6.40
2019-06-26T22:37:29.015Z,7.17
2019-06-26T22:39:59.936Z,6.40
2019-06-26T22:42:29.848Z,5.60
2019-06-26T22:44:59.602Z,5.73
2019-06-26T22:47:29.411Z,6.60
2019-06-26T22:49:59.100Z,7.23
2019-06-26T22:52:28.720Z,7.60
2019-06-26T22:54:58.341Z,6.53
2019-06-26T22:57:28.405Z,6.27
2019-06-26T22:59:58.242Z,7.53
2019-06-26T23:02:27.875Z,5.23
2019-06-26T23:04:57.878Z,7.07
2019-06-26T23:07:27.696Z,7.03
2019-06-26T23:09:57.596Z,7.93
2019-06-26T23:12:27.513Z,8.30
2019-06-26T23:14:56.879Z,10.00
2019-06-26T23:17:26.624Z,7.20
2019-06-26T23:19:56.189Z,8.90
2019-06-26T23:22:26.126Z,8.70
2019-06-26T23:24:55.842Z,8.73
2019-06-26T23:27:25.378Z,8.73
2019-06-26T23:29:54.837Z,9.83
2019-06-26T23:32:24.231Z,9.80
2019-06-26T23:34:53.426Z,8.33
2019-06-26T23:37:22.621Z,7.73
2019-06-26T23:39:51.774Z,9.33
2019-06-26T23:42:21.278Z,9.37
2019-06-26T23:44:50.325Z,12.73
2019-06-26T23:47:19.680Z,8.37
2019-06-26T23:49:48.774Z,9.03
2019-06-26T23:52:18.015Z,9.40
2019-06-26T23:54:47.584Z,10.67
2019-06-26T23:57:16.983Z,8.63
2019-06-26T23:59:46.232Z,9.87
